Marion, IN

11:06 AM EST on December 10, 2016 (GMT -0500)
Shady Hills Estates | | Change Station

Elev 853 ft 40.58 °N, 85.67 °W | Updated 47 seconds ago

Overcast
Overcast
25.3 °F
Feels Like 25 °F
N
2.5
Wind Variable Wind from SSW
Gusts 2.5 mph

Today
High -- | Low -- °F
--% Chance of Precip.
Yesterday
High -- | Low -- °F
Precip. -- in
Pressure 30.54 in
Visibility 4.0 miles
Clouds Mostly Cloudy 2000 ft
Overcast 2700 ft
Windchill 25 °F
Dew Point -8 °F
Humidity 22%
Rainfall 0.00 in
Snow Depth Not available.
7:55 AM 5:15 PM
Waxing Gibbous, 84% visible
METAR KMZZ 101555Z AUTO 24009KT 4SM HZ BKN020 OVC027 M04/M08 A3054 RMK AO2 T10431083
Pressure 30.54 in
Visibility 4.0 miles
Clouds Mostly Cloudy 2000 ft
Overcast 2700 ft
Windchill 25 °F
Dew Point -8 °F
Humidity 22%
Rainfall 0.00 in
Snow Depth Not available.
7:55 AM 5:15 PM
Waxing Gibbous, 84% visible
METAR KMZZ 101555Z AUTO 24009KT 4SM HZ BKN020 OVC027 M04/M08 A3054 RMK AO2 T10431083

10-Day Weather Forecast

Almanac

Astronomy

Dec. 10, 2016 Rise Set
Actual Time
Civil Twilight
Nautical Twilight
Astronomical Twilight
Moon
Length of Visible Light
Length of Day
Tomorrow will be .
, % of the Moon is Illuminated

Today's Extremes

State Highs State Lows

Community

WunderPhotos

Upload Photos

1,956,569 photos uploaded!

WunderBlog® & News

Nearby

Air Quality

  Air Quality AQ Index Pollutant
Not available.

Snow Depth

Station Depth Elevation

Earthquake Activity

City Distance Mag. Time & Date
Minimum magnitude displayed is 2.5.

Coastal Water Temperatures

Place Temperature

Stations

Nearby Weather Stations

Station Location Temp. Windchill Dew Point Humidity Wind Precip. Elev Updated Type
                   

Watches & Warnings

There are currently no watches in effect.